sensor_id;sensor_type;location;lat;lon;timestamp;P1;durP1;ratioP1;P2;durP2;ratioP2
41456;SDS011;27197;51.752;5.220;2023-07-29T00:00:22;2.33;;;1.65;;
41456;SDS011;27197;51.752;5.220;2023-07-29T00:02:53;3.27;;;1.98;;
41456;SDS011;27197;51.752;5.220;2023-07-29T00:05:25;2.52;;;1.72;;
41456;SDS011;27197;51.752;5.220;2023-07-29T00:07:55;4.40;;;2.33;;
41456;SDS011;27197;51.752;5.220;2023-07-29T00:10:25;4.50;;;2.52;;
41456;SDS011;27197;51.752;5.220;2023-07-29T00:12:57;5.33;;;3.85;;
41456;SDS011;27197;51.752;5.220;2023-07-29T00:15:27;6.53;;;4.37;;
41456;SDS011;27197;51.752;5.220;2023-07-29T00:18:04;7.00;;;4.97;;
41456;SDS011;27197;51.752;5.220;2023-07-29T00:20:33;3.80;;;2.33;;
41456;SDS011;27197;51.752;5.220;2023-07-29T00:23:06;3.98;;;2.50;;
41456;SDS011;27197;51.752;5.220;2023-07-29T00:25:40;4.78;;;3.42;;
41456;SDS011;27197;51.752;5.220;2023-07-29T00:28:13;5.05;;;2.62;;
41456;SDS011;27197;51.752;5.220;2023-07-29T00:30:43;3.15;;;2.25;;
41456;SDS011;27197;51.752;5.220;2023-07-29T00:33:17;6.50;;;3.55;;
41456;SDS011;27197;51.752;5.220;2023-07-29T00:35:46;2.40;;;1.80;;
41456;SDS011;27197;51.752;5.220;2023-07-29T00:38:20;3.37;;;1.95;;
41456;SDS011;27197;51.752;5.220;2023-07-29T00:40:52;2.75;;;1.77;;
41456;SDS011;27197;51.752;5.220;2023-07-29T00:43:24;4.05;;;2.17;;
41456;SDS011;27197;51.752;5.220;2023-07-29T00:45:54;3.08;;;1.87;;
41456;SDS011;27197;51.752;5.220;2023-07-29T00:48:26;2.30;;;1.62;;
41456;SDS011;27197;51.752;5.220;2023-07-29T00:51:02;2.62;;;1.70;;
41456;SDS011;27197;51.752;5.220;2023-07-29T00:53:33;2.70;;;1.45;;
41456;SDS011;27197;51.752;5.220;2023-07-29T00:56:04;3.58;;;2.33;;
41456;SDS011;27197;51.752;5.220;2023-07-29T00:58:37;4.75;;;1.85;;
41456;SDS011;27197;51.752;5.220;2023-07-29T01:01:08;2.50;;;1.57;;
41456;SDS011;27197;51.752;5.220;2023-07-29T01:03:38;2.55;;;1.45;;
41456;SDS011;27197;51.752;5.220;2023-07-29T01:09:04;3.92;;;2.00;;
41456;SDS011;27197;51.752;5.220;2023-07-29T01:14:29;4.12;;;2.52;;
41456;SDS011;27197;51.752;5.220;2023-07-29T01:17:07;4.00;;;2.40;;
41456;SDS011;27197;51.752;5.220;2023-07-29T01:22:29;3.22;;;1.90;;
41456;SDS011;27197;51.752;5.220;2023-07-29T01:25:01;2.62;;;1.70;;
41456;SDS011;27197;51.752;5.220;2023-07-29T01:27:31;3.15;;;1.75;;
41456;SDS011;27197;51.752;5.220;2023-07-29T01:30:03;5.00;;;2.47;;
41456;SDS011;27197;51.752;5.220;2023-07-29T01:32:55;3.95;;;1.87;;
41456;SDS011;27197;51.752;5.220;2023-07-29T01:38:05;4.08;;;2.62;;
41456;SDS011;27197;51.752;5.220;2023-07-29T01:40:37;5.03;;;2.10;;
41456;SDS011;27197;51.752;5.220;2023-07-29T01:43:13;3.40;;;1.95;;
41456;SDS011;27197;51.752;5.220;2023-07-29T01:45:45;3.80;;;2.37;;
41456;SDS011;27197;51.752;5.220;2023-07-29T01:48:16;4.45;;;2.50;;
41456;SDS011;27197;51.752;5.220;2023-07-29T01:50:47;4.33;;;2.17;;
41456;SDS011;27197;51.752;5.220;2023-07-29T01:53:25;3.98;;;2.47;;
41456;SDS011;27197;51.752;5.220;2023-07-29T01:56:01;4.78;;;1.87;;
41456;SDS011;27197;51.752;5.220;2023-07-29T01:58:32;4.55;;;2.08;;
41456;SDS011;27197;51.752;5.220;2023-07-29T02:01:08;6.97;;;2.80;;
41456;SDS011;27197;51.752;5.220;2023-07-29T02:03:37;2.92;;;1.50;;
41456;SDS011;27197;51.752;5.220;2023-07-29T02:06:12;5.62;;;1.85;;
41456;SDS011;27197;51.752;5.220;2023-07-29T02:08:42;2.12;;;1.42;;
41456;SDS011;27197;51.752;5.220;2023-07-29T02:11:11;3.22;;;2.00;;
41456;SDS011;27197;51.752;5.220;2023-07-29T02:13:44;2.65;;;1.62;;
41456;SDS011;27197;51.752;5.220;2023-07-29T02:16:13;3.47;;;1.57;;
41456;SDS011;27197;51.752;5.220;2023-07-29T02:18:47;2.67;;;1.60;;
41456;SDS011;27197;51.752;5.220;2023-07-29T02:21:19;2.50;;;1.32;;
41456;SDS011;27197;51.752;5.220;2023-07-29T02:23:52;3.35;;;1.52;;
41456;SDS011;27197;51.752;5.220;2023-07-29T02:26:24;2.20;;;1.17;;
41456;SDS011;27197;51.752;5.220;2023-07-29T02:28:57;3.65;;;1.70;;
41456;SDS011;27197;51.752;5.220;2023-07-29T02:31:31;2.17;;;1.30;;
41456;SDS011;27197;51.752;5.220;2023-07-29T02:34:03;2.47;;;1.42;;
41456;SDS011;27197;51.752;5.220;2023-07-29T02:36:35;3.42;;;1.60;;
41456;SDS011;27197;51.752;5.220;2023-07-29T02:39:03;3.85;;;1.42;;
41456;SDS011;27197;51.752;5.220;2023-07-29T02:41:32;3.50;;;1.50;;
41456;SDS011;27197;51.752;5.220;2023-07-29T02:44:02;2.50;;;1.60;;
41456;SDS011;27197;51.752;5.220;2023-07-29T02:46:34;3.65;;;1.70;;
41456;SDS011;27197;51.752;5.220;2023-07-29T02:49:04;2.87;;;1.40;;
41456;SDS011;27197;51.752;5.220;2023-07-29T02:51:36;3.72;;;1.32;;
41456;SDS011;27197;51.752;5.220;2023-07-29T02:54:07;5.10;;;1.50;;
41456;SDS011;27197;51.752;5.220;2023-07-29T02:56:37;2.37;;;1.40;;
41456;SDS011;27197;51.752;5.220;2023-07-29T02:59:10;2.77;;;1.50;;
41456;SDS011;27197;51.752;5.220;2023-07-29T03:01:44;3.25;;;1.50;;
41456;SDS011;27197;51.752;5.220;2023-07-29T03:04:13;3.20;;;1.70;;
41456;SDS011;27197;51.752;5.220;2023-07-29T03:06:46;2.85;;;1.27;;
41456;SDS011;27197;51.752;5.220;2023-07-29T03:09:15;2.80;;;1.40;;
41456;SDS011;27197;51.752;5.220;2023-07-29T03:11:50;3.40;;;1.72;;
41456;SDS011;27197;51.752;5.220;2023-07-29T03:14:20;2.50;;;1.62;;
41456;SDS011;27197;51.752;5.220;2023-07-29T03:16:51;3.12;;;1.47;;
41456;SDS011;27197;51.752;5.220;2023-07-29T03:19:19;4.12;;;2.00;;
41456;SDS011;27197;51.752;5.220;2023-07-29T03:21:50;3.47;;;1.45;;
41456;SDS011;27197;51.752;5.220;2023-07-29T03:24:21;3.10;;;1.72;;
41456;SDS011;27197;51.752;5.220;2023-07-29T03:26:51;3.25;;;1.40;;
41456;SDS011;27197;51.752;5.220;2023-07-29T03:29:23;1.98;;;1.02;;
41456;SDS011;27197;51.752;5.220;2023-07-29T03:31:59;2.35;;;1.20;;
41456;SDS011;27197;51.752;5.220;2023-07-29T03:34:32;2.67;;;1.60;;
41456;SDS011;27197;51.752;5.220;2023-07-29T03:37:05;2.90;;;1.62;;
41456;SDS011;27197;51.752;5.220;2023-07-29T03:42:10;2.15;;;1.30;;
41456;SDS011;27197;51.752;5.220;2023-07-29T03:44:40;2.50;;;1.50;;
41456;SDS011;27197;51.752;5.220;2023-07-29T03:47:15;2.27;;;1.37;;
41456;SDS011;27197;51.752;5.220;2023-07-29T03:49:48;1.85;;;1.20;;
41456;SDS011;27197;51.752;5.220;2023-07-29T03:52:21;2.08;;;1.25;;
41456;SDS011;27197;51.752;5.220;2023-07-29T03:54:51;3.10;;;1.62;;
41456;SDS011;27197;51.752;5.220;2023-07-29T03:57:23;4.53;;;1.92;;
41456;SDS011;27197;51.752;5.220;2023-07-29T03:59:52;2.67;;;1.30;;
41456;SDS011;27197;51.752;5.220;2023-07-29T04:02:23;2.92;;;1.20;;
41456;SDS011;27197;51.752;5.220;2023-07-29T04:04:54;2.47;;;1.20;;
41456;SDS011;27197;51.752;5.220;2023-07-29T04:07:24;2.47;;;1.55;;
41456;SDS011;27197;51.752;5.220;2023-07-29T04:09:58;4.17;;;1.98;;
41456;SDS011;27197;51.752;5.220;2023-07-29T04:12:31;2.33;;;1.32;;
41456;SDS011;27197;51.752;5.220;2023-07-29T04:15:20;2.37;;;1.30;;
41456;SDS011;27197;51.752;5.220;2023-07-29T04:17:52;2.85;;;1.35;;
41456;SDS011;27197;51.752;5.220;2023-07-29T04:20:22;2.60;;;1.60;;
41456;SDS011;27197;51.752;5.220;2023-07-29T04:22:51;4.22;;;2.42;;
41456;SDS011;27197;51.752;5.220;2023-07-29T04:25:24;3.90;;;2.20;;
41456;SDS011;27197;51.752;5.220;2023-07-29T04:27:54;3.92;;;2.12;;
41456;SDS011;27197;51.752;5.220;2023-07-29T04:30:24;2.67;;;1.40;;
41456;SDS011;27197;51.752;5.220;2023-07-29T04:32:54;3.33;;;1.55;;
41456;SDS011;27197;51.752;5.220;2023-07-29T04:35:24;2.92;;;1.80;;
41456;SDS011;27197;51.752;5.220;2023-07-29T04:37:56;4.62;;;2.35;;
41456;SDS011;27197;51.752;5.220;2023-07-29T04:40:29;4.00;;;2.50;;
41456;SDS011;27197;51.752;5.220;2023-07-29T04:43:04;4.80;;;2.37;;
41456;SDS011;27197;51.752;5.220;2023-07-29T04:45:36;5.55;;;1.87;;
41456;SDS011;27197;51.752;5.220;2023-07-29T04:48:08;5.12;;;2.33;;
41456;SDS011;27197;51.752;5.220;2023-07-29T04:50:39;4.85;;;2.20;;
41456;SDS011;27197;51.752;5.220;2023-07-29T04:53:08;3.05;;;1.80;;
41456;SDS011;27197;51.752;5.220;2023-07-29T04:55:44;2.08;;;1.20;;
41456;SDS011;27197;51.752;5.220;2023-07-29T04:58:14;4.72;;;3.22;;
41456;SDS011;27197;51.752;5.220;2023-07-29T05:00:46;4.55;;;3.15;;
41456;SDS011;27197;51.752;5.220;2023-07-29T05:03:18;5.17;;;3.20;;
41456;SDS011;27197;51.752;5.220;2023-07-29T05:05:51;5.10;;;2.50;;
41456;SDS011;27197;51.752;5.220;2023-07-29T05:08:21;5.92;;;2.67;;
41456;SDS011;27197;51.752;5.220;2023-07-29T05:10:58;5.40;;;3.10;;
41456;SDS011;27197;51.752;5.220;2023-07-29T05:13:28;2.95;;;1.50;;
41456;SDS011;27197;51.752;5.220;2023-07-29T05:15:59;2.60;;;1.57;;
41456;SDS011;27197;51.752;5.220;2023-07-29T05:18:29;3.05;;;1.45;;
41456;SDS011;27197;51.752;5.220;2023-07-29T05:21:03;4.15;;;2.47;;
41456;SDS011;27197;51.752;5.220;2023-07-29T05:23:31;5.60;;;3.05;;
41456;SDS011;27197;51.752;5.220;2023-07-29T05:26:07;3.00;;;1.90;;
41456;SDS011;27197;51.752;5.220;2023-07-29T05:28:37;4.33;;;2.70;;
41456;SDS011;27197;51.752;5.220;2023-07-29T05:31:10;5.10;;;2.87;;
41456;SDS011;27197;51.752;5.220;2023-07-29T05:33:42;5.90;;;3.30;;
41456;SDS011;27197;51.752;5.220;2023-07-29T05:36:17;2.98;;;1.55;;
41456;SDS011;27197;51.752;5.220;2023-07-29T05:38:48;5.53;;;2.60;;
41456;SDS011;27197;51.752;5.220;2023-07-29T05:41:20;4.30;;;2.80;;
41456;SDS011;27197;51.752;5.220;2023-07-29T05:43:54;4.78;;;2.65;;
41456;SDS011;27197;51.752;5.220;2023-07-29T05:46:24;9.20;;;3.67;;
41456;SDS011;27197;51.752;5.220;2023-07-29T05:48:59;4.03;;;2.70;;
41456;SDS011;27197;51.752;5.220;2023-07-29T05:51:35;5.65;;;3.08;;
41456;SDS011;27197;51.752;5.220;2023-07-29T05:54:04;3.87;;;2.30;;
41456;SDS011;27197;51.752;5.220;2023-07-29T05:56:36;4.15;;;2.22;;
41456;SDS011;27197;51.752;5.220;2023-07-29T05:59:07;4.92;;;2.77;;
41456;SDS011;27197;51.752;5.220;2023-07-29T06:01:40;2.72;;;1.72;;
41456;SDS011;27197;51.752;5.220;2023-07-29T06:04:10;4.30;;;2.42;;
41456;SDS011;27197;51.752;5.220;2023-07-29T06:06:43;4.08;;;2.60;;
41456;SDS011;27197;51.752;5.220;2023-07-29T06:09:13;4.58;;;2.67;;
41456;SDS011;27197;51.752;5.220;2023-07-29T06:11:44;5.17;;;3.17;;
41456;SDS011;27197;51.752;5.220;2023-07-29T06:14:13;5.20;;;2.92;;
41456;SDS011;27197;51.752;5.220;2023-07-29T06:16:48;5.12;;;3.12;;
41456;SDS011;27197;51.752;5.220;2023-07-29T06:19:17;5.35;;;2.80;;
41456;SDS011;27197;51.752;5.220;2023-07-29T06:21:54;5.00;;;2.90;;
41456;SDS011;27197;51.752;5.220;2023-07-29T06:24:24;3.65;;;2.20;;
41456;SDS011;27197;51.752;5.220;2023-07-29T06:26:58;5.58;;;2.62;;
41456;SDS011;27197;51.752;5.220;2023-07-29T06:29:26;5.62;;;3.22;;
41456;SDS011;27197;51.752;5.220;2023-07-29T06:31:59;5.37;;;2.60;;
41456;SDS011;27197;51.752;5.220;2023-07-29T06:34:31;5.95;;;2.77;;
41456;SDS011;27197;51.752;5.220;2023-07-29T06:37:03;6.17;;;3.60;;
41456;SDS011;27197;51.752;5.220;2023-07-29T06:39:36;5.00;;;3.25;;
41456;SDS011;27197;51.752;5.220;2023-07-29T06:42:07;5.70;;;3.05;;
41456;SDS011;27197;51.752;5.220;2023-07-29T06:44:38;4.90;;;2.80;;
41456;SDS011;27197;51.752;5.220;2023-07-29T06:47:10;4.67;;;2.42;;
41456;SDS011;27197;51.752;5.220;2023-07-29T06:49:39;5.05;;;3.22;;
41456;SDS011;27197;51.752;5.220;2023-07-29T06:52:08;5.05;;;3.08;;
41456;SDS011;27197;51.752;5.220;2023-07-29T06:54:41;4.65;;;2.45;;
41456;SDS011;27197;51.752;5.220;2023-07-29T06:57:15;4.03;;;2.47;;
41456;SDS011;27197;51.752;5.220;2023-07-29T06:59:45;5.55;;;1.98;;
41456;SDS011;27197;51.752;5.220;2023-07-29T07:02:16;4.97;;;2.45;;
41456;SDS011;27197;51.752;5.220;2023-07-29T07:04:46;3.52;;;2.37;;
41456;SDS011;27197;51.752;5.220;2023-07-29T07:07:18;4.50;;;2.42;;
41456;SDS011;27197;51.752;5.220;2023-07-29T07:09:54;5.30;;;1.95;;
41456;SDS011;27197;51.752;5.220;2023-07-29T07:12:24;6.80;;;2.27;;
41456;SDS011;27197;51.752;5.220;2023-07-29T07:14:54;5.08;;;2.33;;
41456;SDS011;27197;51.752;5.220;2023-07-29T07:17:24;6.12;;;2.52;;
41456;SDS011;27197;51.752;5.220;2023-07-29T07:19:55;4.75;;;2.50;;
41456;SDS011;27197;51.752;5.220;2023-07-29T07:22:28;5.87;;;2.52;;
41456;SDS011;27197;51.752;5.220;2023-07-29T07:24:59;5.53;;;2.35;;
41456;SDS011;27197;51.752;5.220;2023-07-29T07:27:32;4.62;;;2.20;;
41456;SDS011;27197;51.752;5.220;2023-07-29T07:30:02;4.12;;;2.15;;
41456;SDS011;27197;51.752;5.220;2023-07-29T07:32:35;5.00;;;2.25;;
41456;SDS011;27197;51.752;5.220;2023-07-29T07:35:04;4.17;;;2.05;;
41456;SDS011;27197;51.752;5.220;2023-07-29T07:37:36;5.92;;;1.98;;
41456;SDS011;27197;51.752;5.220;2023-07-29T07:40:07;5.47;;;2.62;;
41456;SDS011;27197;51.752;5.220;2023-07-29T07:42:41;3.87;;;2.02;;
41456;SDS011;27197;51.752;5.220;2023-07-29T07:45:12;4.12;;;2.70;;
41456;SDS011;27197;51.752;5.220;2023-07-29T07:47:46;3.35;;;2.05;;
41456;SDS011;27197;51.752;5.220;2023-07-29T07:50:14;4.08;;;2.15;;
41456;SDS011;27197;51.752;5.220;2023-07-29T07:52:46;5.60;;;1.90;;
41456;SDS011;27197;51.752;5.220;2023-07-29T07:55:17;3.77;;;1.60;;
41456;SDS011;27197;51.752;5.220;2023-07-29T07:57:49;3.65;;;1.95;;
41456;SDS011;27197;51.752;5.220;2023-07-29T08:00:22;4.62;;;2.37;;
41456;SDS011;27197;51.752;5.220;2023-07-29T08:02:55;3.55;;;1.70;;
41456;SDS011;27197;51.752;5.220;2023-07-29T08:05:25;2.90;;;1.67;;
41456;SDS011;27197;51.752;5.220;2023-07-29T08:07:53;3.22;;;1.85;;
41456;SDS011;27197;51.752;5.220;2023-07-29T08:10:24;4.03;;;1.75;;
41456;SDS011;27197;51.752;5.220;2023-07-29T08:12:56;2.30;;;1.50;;
41456;SDS011;27197;51.752;5.220;2023-07-29T08:15:27;2.85;;;1.65;;
41456;SDS011;27197;51.752;5.220;2023-07-29T08:17:58;4.40;;;1.85;;
41456;SDS011;27197;51.752;5.220;2023-07-29T08:20:32;2.72;;;1.40;;
41456;SDS011;27197;51.752;5.220;2023-07-29T08:23:03;3.12;;;1.30;;
41456;SDS011;27197;51.752;5.220;2023-07-29T08:25:35;3.12;;;1.50;;
41456;SDS011;27197;51.752;5.220;2023-07-29T08:28:05;3.75;;;1.60;;
41456;SDS011;27197;51.752;5.220;2023-07-29T08:30:36;3.52;;;1.50;;
41456;SDS011;27197;51.752;5.220;2023-07-29T08:33:10;2.25;;;1.00;;
41456;SDS011;27197;51.752;5.220;2023-07-29T08:35:42;2.45;;;1.40;;
41456;SDS011;27197;51.752;5.220;2023-07-29T08:38:16;3.52;;;1.37;;
41456;SDS011;27197;51.752;5.220;2023-07-29T08:41:10;4.03;;;1.22;;
41456;SDS011;27197;51.752;5.220;2023-07-29T08:43:41;3.17;;;1.55;;
41456;SDS011;27197;51.752;5.220;2023-07-29T08:46:20;2.85;;;1.45;;
41456;SDS011;27197;51.752;5.220;2023-07-29T08:48:52;2.33;;;1.20;;
41456;SDS011;27197;51.752;5.220;2023-07-29T08:51:26;2.33;;;1.42;;
41456;SDS011;27197;51.752;5.220;2023-07-29T08:54:00;2.30;;;1.30;;
41456;SDS011;27197;51.752;5.220;2023-07-29T08:56:33;2.67;;;1.30;;
41456;SDS011;27197;51.752;5.220;2023-07-29T08:59:05;3.40;;;1.70;;
41456;SDS011;27197;51.752;5.220;2023-07-29T09:01:42;5.65;;;1.85;;
41456;SDS011;27197;51.752;5.220;2023-07-29T09:04:11;3.85;;;1.70;;
41456;SDS011;27197;51.752;5.220;2023-07-29T09:06:43;3.25;;;1.35;;
41456;SDS011;27197;51.752;5.220;2023-07-29T09:09:15;2.72;;;1.67;;
41456;SDS011;27197;51.752;5.220;2023-07-29T09:11:49;4.55;;;1.55;;
41456;SDS011;27197;51.752;5.220;2023-07-29T09:14:18;4.70;;;2.20;;
41456;SDS011;27197;51.752;5.220;2023-07-29T09:16:52;2.90;;;2.00;;
41456;SDS011;27197;51.752;5.220;2023-07-29T09:19:20;3.10;;;1.67;;
41456;SDS011;27197;51.752;5.220;2023-07-29T09:21:53;3.05;;;1.90;;
41456;SDS011;27197;51.752;5.220;2023-07-29T09:24:23;3.52;;;1.98;;
41456;SDS011;27197;51.752;5.220;2023-07-29T09:26:56;4.08;;;1.65;;
41456;SDS011;27197;51.752;5.220;2023-07-29T09:29:27;3.62;;;1.60;;
41456;SDS011;27197;51.752;5.220;2023-07-29T09:32:17;2.37;;;1.40;;
41456;SDS011;27197;51.752;5.220;2023-07-29T09:34:52;5.70;;;1.60;;
41456;SDS011;27197;51.752;5.220;2023-07-29T09:37:24;3.20;;;1.62;;
41456;SDS011;27197;51.752;5.220;2023-07-29T09:39:53;3.08;;;1.72;;
41456;SDS011;27197;51.752;5.220;2023-07-29T09:42:25;2.58;;;1.47;;
41456;SDS011;27197;51.752;5.220;2023-07-29T09:44:55;4.45;;;1.95;;
41456;SDS011;27197;51.752;5.220;2023-07-29T09:47:31;4.97;;;1.52;;
41456;SDS011;27197;51.752;5.220;2023-07-29T09:50:06;3.02;;;2.05;;
41456;SDS011;27197;51.752;5.220;2023-07-29T09:52:41;3.67;;;1.77;;
41456;SDS011;27197;51.752;5.220;2023-07-29T09:55:13;1.90;;;1.50;;
41456;SDS011;27197;51.752;5.220;2023-07-29T09:57:48;2.90;;;1.60;;
41456;SDS011;27197;51.752;5.220;2023-07-29T10:00:17;2.37;;;1.57;;
41456;SDS011;27197;51.752;5.220;2023-07-29T10:02:51;3.02;;;1.50;;
41456;SDS011;27197;51.752;5.220;2023-07-29T10:05:21;2.65;;;1.72;;
41456;SDS011;27197;51.752;5.220;2023-07-29T10:07:53;2.95;;;1.70;;
41456;SDS011;27197;51.752;5.220;2023-07-29T10:10:28;5.72;;;1.67;;
41456;SDS011;27197;51.752;5.220;2023-07-29T10:15:37;1.90;;;1.15;;
41456;SDS011;27197;51.752;5.220;2023-07-29T10:18:07;2.50;;;1.30;;
41456;SDS011;27197;51.752;5.220;2023-07-29T10:20:37;3.30;;;1.62;;
41456;SDS011;27197;51.752;5.220;2023-07-29T10:23:09;4.15;;;1.52;;
41456;SDS011;27197;51.752;5.220;2023-07-29T10:25:43;3.10;;;1.40;;
41456;SDS011;27197;51.752;5.220;2023-07-29T10:28:12;3.50;;;1.35;;
41456;SDS011;27197;51.752;5.220;2023-07-29T10:30:45;2.70;;;1.65;;
41456;SDS011;27197;51.752;5.220;2023-07-29T10:33:16;2.50;;;1.40;;
41456;SDS011;27197;51.752;5.220;2023-07-29T10:35:47;2.17;;;1.50;;
41456;SDS011;27197;51.752;5.220;2023-07-29T10:38:17;3.50;;;1.80;;
41456;SDS011;27197;51.752;5.220;2023-07-29T10:40:55;2.37;;;1.30;;
41456;SDS011;27197;51.752;5.220;2023-07-29T10:43:33;3.95;;;1.60;;
41456;SDS011;27197;51.752;5.220;2023-07-29T10:46:19;2.60;;;1.12;;
41456;SDS011;27197;51.752;5.220;2023-07-29T10:51:30;3.37;;;1.55;;
41456;SDS011;27197;51.752;5.220;2023-07-29T10:54:13;2.27;;;1.50;;
41456;SDS011;27197;51.752;5.220;2023-07-29T10:56:43;4.42;;;1.95;;
41456;SDS011;27197;51.752;5.220;2023-07-29T11:02:00;2.33;;;1.30;;
41456;SDS011;27197;51.752;5.220;2023-07-29T11:04:31;2.83;;;1.40;;
41456;SDS011;27197;51.752;5.220;2023-07-29T11:09:51;2.50;;;1.17;;
41456;SDS011;27197;51.752;5.220;2023-07-29T11:17:57;2.02;;;1.00;;
41456;SDS011;27197;51.752;5.220;2023-07-29T11:20:30;3.08;;;1.57;;
41456;SDS011;27197;51.752;5.220;2023-07-29T11:23:06;2.95;;;1.60;;
41456;SDS011;27197;51.752;5.220;2023-07-29T11:25:36;2.42;;;1.20;;
41456;SDS011;27197;51.752;5.220;2023-07-29T11:28:10;3.80;;;1.70;;
41456;SDS011;27197;51.752;5.220;2023-07-29T11:30:40;3.02;;;1.52;;
41456;SDS011;27197;51.752;5.220;2023-07-29T11:33:11;4.62;;;1.90;;
41456;SDS011;27197;51.752;5.220;2023-07-29T11:38:32;2.10;;;1.25;;
41456;SDS011;27197;51.752;5.220;2023-07-29T11:41:01;2.45;;;1.30;;
41456;SDS011;27197;51.752;5.220;2023-07-29T11:43:35;2.87;;;1.15;;
41456;SDS011;27197;51.752;5.220;2023-07-29T11:46:06;2.83;;;1.30;;
41456;SDS011;27197;51.752;5.220;2023-07-29T11:48:36;3.33;;;1.50;;
41456;SDS011;27197;51.752;5.220;2023-07-29T11:51:07;2.75;;;1.50;;
41456;SDS011;27197;51.752;5.220;2023-07-29T11:53:38;2.58;;;1.30;;
41456;SDS011;27197;51.752;5.220;2023-07-29T11:56:14;2.10;;;1.40;;
41456;SDS011;27197;51.752;5.220;2023-07-29T11:58:48;2.95;;;1.57;;
41456;SDS011;27197;51.752;5.220;2023-07-29T12:01:17;3.58;;;1.92;;
41456;SDS011;27197;51.752;5.220;2023-07-29T12:03:52;3.72;;;2.27;;
41456;SDS011;27197;51.752;5.220;2023-07-29T12:06:20;5.30;;;2.30;;
41456;SDS011;27197;51.752;5.220;2023-07-29T12:08:53;3.75;;;1.80;;
41456;SDS011;27197;51.752;5.220;2023-07-29T12:11:24;4.80;;;2.60;;
41456;SDS011;27197;51.752;5.220;2023-07-29T12:13:54;4.90;;;2.35;;
41456;SDS011;27197;51.752;5.220;2023-07-29T12:16:24;3.00;;;1.87;;
41456;SDS011;27197;51.752;5.220;2023-07-29T12:19:00;3.52;;;2.60;;
41456;SDS011;27197;51.752;5.220;2023-07-29T12:21:29;4.40;;;2.15;;
41456;SDS011;27197;51.752;5.220;2023-07-29T12:23:59;4.85;;;2.47;;
41456;SDS011;27197;51.752;5.220;2023-07-29T12:26:29;2.95;;;1.62;;
41456;SDS011;27197;51.752;5.220;2023-07-29T12:29:11;8.10;;;3.25;;
41456;SDS011;27197;51.752;5.220;2023-07-29T12:31:46;3.87;;;2.67;;
41456;SDS011;27197;51.752;5.220;2023-07-29T12:34:20;5.03;;;2.70;;
41456;SDS011;27197;51.752;5.220;2023-07-29T12:36:51;4.45;;;2.95;;
41456;SDS011;27197;51.752;5.220;2023-07-29T12:39:24;4.28;;;2.60;;
41456;SDS011;27197;51.752;5.220;2023-07-29T12:41:57;3.10;;;2.17;;
41456;SDS011;27197;51.752;5.220;2023-07-29T12:44:33;2.75;;;1.70;;
41456;SDS011;27197;51.752;5.220;2023-07-29T12:47:02;3.05;;;1.90;;
41456;SDS011;27197;51.752;5.220;2023-07-29T12:49:33;2.55;;;1.98;;
41456;SDS011;27197;51.752;5.220;2023-07-29T12:52:04;3.47;;;2.60;;
41456;SDS011;27197;51.752;5.220;2023-07-29T12:54:36;4.22;;;2.83;;
41456;SDS011;27197;51.752;5.220;2023-07-29T12:57:07;4.03;;;2.75;;
41456;SDS011;27197;51.752;5.220;2023-07-29T12:59:38;4.30;;;2.80;;
41456;SDS011;27197;51.752;5.220;2023-07-29T13:02:10;4.35;;;2.95;;
41456;SDS011;27197;51.752;5.220;2023-07-29T13:04:40;2.90;;;2.22;;
41456;SDS011;27197;51.752;5.220;2023-07-29T13:07:10;3.70;;;2.40;;
41456;SDS011;27197;51.752;5.220;2023-07-29T13:09:41;3.58;;;2.95;;
41456;SDS011;27197;51.752;5.220;2023-07-29T13:12:10;3.15;;;2.22;;
41456;SDS011;27197;51.752;5.220;2023-07-29T13:14:40;4.12;;;2.65;;
41456;SDS011;27197;51.752;5.220;2023-07-29T13:17:10;4.20;;;2.83;;
41456;SDS011;27197;51.752;5.220;2023-07-29T13:19:39;3.20;;;2.27;;
41456;SDS011;27197;51.752;5.220;2023-07-29T13:22:10;3.60;;;2.60;;
41456;SDS011;27197;51.752;5.220;2023-07-29T13:24:41;3.37;;;2.17;;
41456;SDS011;27197;51.752;5.220;2023-07-29T13:27:12;3.67;;;2.27;;
41456;SDS011;27197;51.752;5.220;2023-07-29T13:29:42;1.92;;;1.47;;
41456;SDS011;27197;51.752;5.220;2023-07-29T13:32:12;3.20;;;2.00;;
41456;SDS011;27197;51.752;5.220;2023-07-29T13:34:44;2.12;;;1.45;;
41456;SDS011;27197;51.752;5.220;2023-07-29T13:37:14;3.33;;;1.67;;
41456;SDS011;27197;51.752;5.220;2023-07-29T13:39:48;2.80;;;1.40;;
41456;SDS011;27197;51.752;5.220;2023-07-29T13:42:17;2.55;;;1.60;;
41456;SDS011;27197;51.752;5.220;2023-07-29T13:44:47;2.52;;;1.67;;
41456;SDS011;27197;51.752;5.220;2023-07-29T13:47:17;2.42;;;1.67;;
41456;SDS011;27197;51.752;5.220;2023-07-29T13:49:48;3.25;;;1.80;;
41456;SDS011;27197;51.752;5.220;2023-07-29T13:52:17;3.22;;;1.90;;
41456;SDS011;27197;51.752;5.220;2023-07-29T13:54:47;2.25;;;1.32;;
41456;SDS011;27197;51.752;5.220;2023-07-29T13:57:16;4.08;;;1.65;;
41456;SDS011;27197;51.752;5.220;2023-07-29T13:59:45;2.83;;;1.98;;
41456;SDS011;27197;51.752;5.220;2023-07-29T14:02:17;2.55;;;1.70;;
41456;SDS011;27197;51.752;5.220;2023-07-29T14:04:48;2.80;;;2.00;;
41456;SDS011;27197;51.752;5.220;2023-07-29T14:07:20;2.42;;;1.72;;
41456;SDS011;27197;51.752;5.220;2023-07-29T14:09:54;3.70;;;2.00;;
41456;SDS011;27197;51.752;5.220;2023-07-29T14:12:24;2.15;;;1.45;;
41456;SDS011;27197;51.752;5.220;2023-07-29T14:14:53;2.70;;;1.60;;
41456;SDS011;27197;51.752;5.220;2023-07-29T14:17:22;2.08;;;1.50;;
41456;SDS011;27197;51.752;5.220;2023-07-29T14:19:53;2.27;;;1.60;;
41456;SDS011;27197;51.752;5.220;2023-07-29T14:22:23;3.33;;;1.90;;
41456;SDS011;27197;51.752;5.220;2023-07-29T14:24:54;3.17;;;2.08;;
41456;SDS011;27197;51.752;5.220;2023-07-29T14:27:25;2.40;;;1.80;;
41456;SDS011;27197;51.752;5.220;2023-07-29T14:29:54;2.95;;;1.50;;
41456;SDS011;27197;51.752;5.220;2023-07-29T14:32:25;2.50;;;1.67;;
41456;SDS011;27197;51.752;5.220;2023-07-29T14:34:58;3.37;;;2.10;;
41456;SDS011;27197;51.752;5.220;2023-07-29T14:37:32;2.65;;;1.90;;
41456;SDS011;27197;51.752;5.220;2023-07-29T14:39:58;2.77;;;2.00;;
41456;SDS011;27197;51.752;5.220;2023-07-29T14:42:28;3.33;;;2.15;;
41456;SDS011;27197;51.752;5.220;2023-07-29T14:44:58;3.02;;;2.20;;
41456;SDS011;27197;51.752;5.220;2023-07-29T14:47:27;3.02;;;2.40;;
41456;SDS011;27197;51.752;5.220;2023-07-29T14:49:57;4.28;;;2.50;;
41456;SDS011;27197;51.752;5.220;2023-07-29T14:52:27;3.00;;;2.10;;
41456;SDS011;27197;51.752;5.220;2023-07-29T14:54:58;3.45;;;2.47;;
41456;SDS011;27197;51.752;5.220;2023-07-29T14:57:28;3.37;;;2.55;;
41456;SDS011;27197;51.752;5.220;2023-07-29T14:59:58;2.98;;;2.30;;
41456;SDS011;27197;51.752;5.220;2023-07-29T15:02:27;3.60;;;1.80;;
41456;SDS011;27197;51.752;5.220;2023-07-29T15:05:00;3.08;;;2.45;;
41456;SDS011;27197;51.752;5.220;2023-07-29T15:07:29;3.42;;;2.02;;
41456;SDS011;27197;51.752;5.220;2023-07-29T15:09:59;3.77;;;1.77;;
41456;SDS011;27197;51.752;5.220;2023-07-29T15:12:28;3.67;;;2.00;;
41456;SDS011;27197;51.752;5.220;2023-07-29T15:14:59;4.08;;;2.22;;
41456;SDS011;27197;51.752;5.220;2023-07-29T15:17:28;2.47;;;1.92;;
41456;SDS011;27197;51.752;5.220;2023-07-29T15:19:57;3.10;;;2.40;;
41456;SDS011;27197;51.752;5.220;2023-07-29T15:22:32;3.50;;;2.02;;
41456;SDS011;27197;51.752;5.220;2023-07-29T15:25:03;4.40;;;2.85;;
41456;SDS011;27197;51.752;5.220;2023-07-29T15:27:34;4.53;;;2.80;;
41456;SDS011;27197;51.752;5.220;2023-07-29T15:30:04;3.58;;;2.65;;
41456;SDS011;27197;51.752;5.220;2023-07-29T15:32:33;3.80;;;3.02;;
41456;SDS011;27197;51.752;5.220;2023-07-29T15:35:02;4.50;;;2.77;;
41456;SDS011;27197;51.752;5.220;2023-07-29T15:37:36;4.87;;;3.25;;
41456;SDS011;27197;51.752;5.220;2023-07-29T15:40:09;4.75;;;3.02;;
41456;SDS011;27197;51.752;5.220;2023-07-29T15:42:38;3.70;;;2.45;;
41456;SDS011;27197;51.752;5.220;2023-07-29T15:45:09;4.25;;;2.40;;
41456;SDS011;27197;51.752;5.220;2023-07-29T15:47:40;6.08;;;2.50;;